createdAt,value
2022-09-07T00:02:15.228Z,87.48
2022-09-07T00:04:45.953Z,90.02
2022-09-07T00:07:16.332Z,89.65
2022-09-07T00:09:46.443Z,89.66
2022-09-07T00:12:16.366Z,91.66
2022-09-07T00:14:46.276Z,91.52
2022-09-07T00:17:17.082Z,90.10
2022-09-07T00:19:47.321Z,90.04
2022-09-07T00:22:17.248Z,90.32
2022-09-07T00:24:47.342Z,90.72
2022-09-07T00:27:16.554Z,90.59
2022-09-07T00:29:46.463Z,91.64
2022-09-07T00:32:16.584Z,90.99
2022-09-07T00:34:46.444Z,90.16
2022-09-07T00:37:15.603Z,90.68
2022-09-07T00:39:46.121Z,90.19
2022-09-07T00:42:20.900Z,89.33
2022-09-07T00:45:07.648Z,88.80
2022-09-07T00:48:06.671Z,88.74
2022-09-07T00:50:43.751Z,89.11
2022-09-07T00:53:23.299Z,89.97
2022-09-07T00:55:54.760Z,89.02
2022-09-07T00:58:25.747Z,88.90
2022-09-07T01:00:56.559Z,88.17
2022-09-07T01:03:34.610Z,88.62
2022-09-07T01:06:16.414Z,90.10
2022-09-07T01:08:50.464Z,90.28
2022-09-07T01:11:23.627Z,89.51
2022-09-07T01:13:54.980Z,88.80
2022-09-07T01:16:45.965Z,89.58
2022-09-07T01:19:27.480Z,89.74
2022-09-07T01:22:41.802Z,89.90
2022-09-07T01:25:15.616Z,90.67
2022-09-07T01:28:03.946Z,92.30
2022-09-07T01:30:38.271Z,92.79
2022-09-07T01:33:33.582Z,92.05
2022-09-07T01:36:25.124Z,91.12
2022-09-07T01:38:59.833Z,89.90
2022-09-07T01:41:41.719Z,89.75
2022-09-07T01:44:21.348Z,89.42
2022-09-07T01:46:58.427Z,89.96
2022-09-07T01:49:36.362Z,90.15
2022-09-07T01:52:26.375Z,90.89
2022-09-07T01:55:17.556Z,91.04
2022-09-07T01:57:54.730Z,89.49
2022-09-07T02:00:25.025Z,89.40
2022-09-07T02:03:19.251Z,89.34
2022-09-07T02:06:10.143Z,89.34
2022-09-07T02:08:50.720Z,89.08
2022-09-07T02:11:25.863Z,89.02
2022-09-07T02:14:01.350Z,88.31
2022-09-07T02:16:33.865Z,88.09
2022-09-07T02:19:11.570Z,89.17
2022-09-07T02:21:55.243Z,88.57
2022-09-07T02:24:32.180Z,86.76
2022-09-07T02:27:09.085Z,86.38
2022-09-07T02:29:38.870Z,86.12
2022-09-07T02:32:08.856Z,85.87
2022-09-07T02:34:38.555Z,88.76
2022-09-07T02:37:10.433Z,88.74
2022-09-07T02:39:40.086Z,89.74
2022-09-07T02:42:10.383Z,90.48
2022-09-07T02:44:42.916Z,88.05
2022-09-07T02:47:36.638Z,87.06
2022-09-07T02:50:24.464Z,88.60
2022-09-07T02:53:07.707Z,90.12
2022-09-07T02:55:58.309Z,89.28
2022-09-07T02:58:51.163Z,89.43
2022-09-07T03:01:38.491Z,88.88
2022-09-07T03:04:29.347Z,89.39
2022-09-07T03:07:06.146Z,88.37
2022-09-07T03:09:40.559Z,88.96
2022-09-07T03:12:11.445Z,88.47
2022-09-07T03:14:43.271Z,88.39
2022-09-07T03:17:13.835Z,88.31
2022-09-07T03:19:43.538Z,90.07
2022-09-07T03:22:13.212Z,92.05
2022-09-07T03:24:43.974Z,93.06
2022-09-07T03:27:13.263Z,93.29
2022-09-07T03:29:43.281Z,93.42
2022-09-07T03:32:12.482Z,94.23
2022-09-07T03:34:42.060Z,93.21
2022-09-07T03:37:11.156Z,93.87
2022-09-07T03:39:40.588Z,93.23
2022-09-07T03:42:10.174Z,93.32
2022-09-07T03:44:39.285Z,92.60
2022-09-07T03:47:09.903Z,91.23
2022-09-07T03:49:39.354Z,91.56
2022-09-07T03:52:09.116Z,91.62
2022-09-07T03:54:39.784Z,91.63
2022-09-07T03:57:09.559Z,92.01
2022-09-07T03:59:38.727Z,91.79
2022-09-07T04:02:08.302Z,91.94
2022-09-07T04:04:37.462Z,90.10
2022-09-07T04:07:07.379Z,89.07
2022-09-07T04:09:36.780Z,89.98
2022-09-07T04:12:07.707Z,90.70
2022-09-07T04:14:36.805Z,91.46
2022-09-07T04:17:06.386Z,92.14
2022-09-07T04:19:35.350Z,91.98
2022-09-07T04:22:04.514Z,90.97
2022-09-07T04:24:34.392Z,90.35
2022-09-07T04:27:03.679Z,91.34
2022-09-07T04:29:33.013Z,91.79
2022-09-07T04:32:02.730Z,92.03
2022-09-07T04:34:31.726Z,91.77
2022-09-07T04:37:00.807Z,92.54
2022-09-07T04:39:29.953Z,92.68
2022-09-07T04:41:59.092Z,91.86
2022-09-07T04:44:28.404Z,92.03
2022-09-07T04:46:57.491Z,92.20
2022-09-07T04:49:27.004Z,92.52
2022-09-07T04:51:56.362Z,92.00
2022-09-07T04:54:26.843Z,91.98
2022-09-07T04:56:56.121Z,91.49
2022-09-07T04:59:27.784Z,90.67
2022-09-07T05:01:57.311Z,90.77
2022-09-07T05:04:26.383Z,92.09
2022-09-07T05:06:56.094Z,92.22
2022-09-07T05:09:25.285Z,92.84
2022-09-07T05:11:55.244Z,92.77
2022-09-07T05:14:24.709Z,91.26
2022-09-07T05:16:53.932Z,91.64
2022-09-07T05:19:23.509Z,91.98
2022-09-07T05:21:52.602Z,90.95
2022-09-07T05:24:21.604Z,90.11
2022-09-07T05:26:50.698Z,90.83
2022-09-07T05:32:09.874Z,89.51
2022-09-07T05:34:39.085Z,89.62
2022-09-07T05:37:09.502Z,90.55
2022-09-07T05:39:38.641Z,91.54
2022-09-07T05:42:08.089Z,92.30
2022-09-07T05:44:45.791Z,92.09
2022-09-07T05:47:15.716Z,91.54
2022-09-07T05:49:44.883Z,91.23
2022-09-07T05:52:14.108Z,90.38
2022-09-07T05:54:45.146Z,89.29
2022-09-07T05:57:15.889Z,88.32
2022-09-07T05:59:44.848Z,87.63
2022-09-07T06:02:15.543Z,88.38
2022-09-07T06:04:44.893Z,89.81
2022-09-07T06:07:23.199Z,90.89
2022-09-07T06:12:49.132Z,90.57
2022-09-07T06:15:19.321Z,90.47
2022-09-07T06:17:49.304Z,90.39
2022-09-07T06:20:18.286Z,91.26
2022-09-07T06:22:47.278Z,90.50
2022-09-07T06:25:16.885Z,90.70
2022-09-07T06:27:49.073Z,89.31
2022-09-07T06:30:18.668Z,88.48
2022-09-07T06:32:48.067Z,90.20
2022-09-07T06:35:16.954Z,91.98
2022-09-07T06:37:45.945Z,92.17
2022-09-07T06:40:15.712Z,91.95
2022-09-07T06:42:45.774Z,91.27
2022-09-07T06:45:17.223Z,93.30
2022-09-07T06:47:47.245Z,93.44
2022-09-07T06:50:17.551Z,94.87
2022-09-07T06:55:43.909Z,95.48
2022-09-07T06:58:13.117Z,93.86
2022-09-07T07:00:42.406Z,93.10
2022-09-07T07:03:11.599Z,92.79
2022-09-07T07:05:40.708Z,91.58
2022-09-07T07:08:10.421Z,91.59
2022-09-07T07:10:40.031Z,91.82
2022-09-07T07:13:09.115Z,91.01
2022-09-07T07:15:39.234Z,91.36
2022-09-07T07:18:20.404Z,91.08
2022-09-07T07:20:51.053Z,90.77
2022-09-07T07:23:20.136Z,91.09
2022-09-07T07:25:49.235Z,93.84
2022-09-07T07:31:12.056Z,94.65
2022-09-07T07:33:43.707Z,94.03
2022-09-07T07:36:17.055Z,93.28
2022-09-07T07:39:03.435Z,93.33
2022-09-07T07:44:22.636Z,93.69
2022-09-07T07:46:52.862Z,94.43
2022-09-07T07:49:22.061Z,93.90
2022-09-07T07:54:39.599Z,91.80
2022-09-07T07:57:08.487Z,91.01
2022-09-07T07:59:37.413Z,91.88
2022-09-07T08:02:09.078Z,92.64
2022-09-07T08:04:38.330Z,92.56
2022-09-07T08:07:10.715Z,91.29
2022-09-07T08:09:42.980Z,90.59
2022-09-07T08:12:16.993Z,90.67
2022-09-07T08:14:48.229Z,90.04
2022-09-07T08:17:18.150Z,90.85
2022-09-07T08:19:46.826Z,92.27
2022-09-07T08:22:15.520Z,91.98
2022-09-07T08:24:44.818Z,90.53
2022-09-07T08:27:14.016Z,89.01
2022-09-07T08:29:43.310Z,88.12
2022-09-07T08:32:12.001Z,87.51
2022-09-07T08:34:41.203Z,87.50
2022-09-07T08:37:10.501Z,87.44
2022-09-07T08:39:39.125Z,86.82
2022-09-07T08:42:16.775Z,86.27
2022-09-07T08:45:01.030Z,87.69
2022-09-07T08:47:46.512Z,88.12
2022-09-07T08:50:29.124Z,86.25
2022-09-07T08:53:08.663Z,85.68
2022-09-07T08:55:41.526Z,86.19
2022-09-07T08:58:32.684Z,84.54
2022-09-07T09:01:36.494Z,83.38
2022-09-07T09:06:11.115Z,80.99
2022-09-07T09:07:14.078Z,79.23
2022-09-07T09:09:55.443Z,77.57
2022-09-07T09:12:55.684Z,77.19
2022-09-07T09:15:31.371Z,76.57
2022-09-07T09:18:00.019Z,74.48
2022-09-07T09:20:54.611Z,71.78
2022-09-07T09:23:27.126Z,72.04
2022-09-07T09:26:02.225Z,66.47
2022-09-07T09:28:32.442Z,70.42
2022-09-07T09:31:01.575Z,65.17
2022-09-07T09:33:30.324Z,65.45
2022-09-07T09:36:02.496Z,65.04
2022-09-07T09:38:37.144Z,62.73
2022-09-07T09:41:15.199Z,63.21
2022-09-07T09:43:55.554Z,60.67
2022-09-07T09:46:34.875Z,61.80
2022-09-07T09:49:13.944Z,60.93
2022-09-07T09:54:43.896Z,56.41
2022-09-07T09:57:17.341Z,55.22
2022-09-07T10:00:06.954Z,55.39
2022-09-07T10:05:42.624Z,55.24
2022-09-07T10:08:30.039Z,53.51
2022-09-07T10:11:00.785Z,56.08
2022-09-07T10:13:32.085Z,55.98
2022-09-07T10:16:05.625Z,56.09
2022-09-07T10:18:57.254Z,56.25
2022-09-07T10:21:31.952Z,58.08
2022-09-07T10:24:06.910Z,58.03
2022-09-07T10:26:38.290Z,57.17
2022-09-07T10:29:29.579Z,57.37
2022-09-07T10:32:10.036Z,58.56
2022-09-07T10:34:47.357Z,60.42
2022-09-07T10:37:24.720Z,59.98
2022-09-07T10:40:02.793Z,60.14
2022-09-07T10:42:35.951Z,61.61
2022-09-07T10:45:16.576Z,62.09
2022-09-07T10:47:57.031Z,62.56
2022-09-07T10:50:49.068Z,62.09
2022-09-07T10:53:40.740Z,61.70
2022-09-07T10:56:35.179Z,61.09
2022-09-07T11:06:05.858Z,61.76
2022-09-07T11:09:16.562Z,62.53
2022-09-07T11:12:05.904Z,62.33
2022-09-07T11:14:45.642Z,62.76
2022-09-07T11:17:28.152Z,61.49
2022-09-07T11:20:08.970Z,62.05
2022-09-07T11:23:48.362Z,60.60
2022-09-07T11:26:37.533Z,61.20
2022-09-07T11:29:31.159Z,60.77
2022-09-07T11:32:32.162Z,61.37
2022-09-07T11:35:21.414Z,62.90
2022-09-07T11:37:59.642Z,62.37
2022-09-07T11:40:42.545Z,61.35
2022-09-07T11:43:23.233Z,60.22
2022-09-07T11:45:58.072Z,60.10
2022-09-07T11:48:33.998Z,59.97
2022-09-07T11:51:09.957Z,60.60
2022-09-07T11:53:46.216Z,60.99
2022-09-07T11:56:22.104Z,60.98
2022-09-07T11:59:16.048Z,60.51
2022-09-07T12:01:54.592Z,60.64
2022-09-07T12:05:10.555Z,60.98
2022-09-07T12:08:05.390Z,63.47
2022-09-07T12:11:03.531Z,64.06
2022-09-07T12:13:47.987Z,63.46
2022-09-07T12:16:30.291Z,63.07
2022-09-07T12:19:17.403Z,62.31
2022-09-07T12:21:59.641Z,61.01
2022-09-07T12:24:48.876Z,59.29
2022-09-07T12:27:20.246Z,59.33
2022-09-07T12:30:10.009Z,58.54
2022-09-07T12:33:04.770Z,57.36
2022-09-07T12:35:33.697Z,57.08
2022-09-07T12:38:30.898Z,55.23
2022-09-07T12:41:20.836Z,53.07
2022-09-07T12:43:49.422Z,51.45
2022-09-07T12:46:44.863Z,50.40
2022-09-07T12:49:56.525Z,50.41
2022-09-07T12:52:43.449Z,49.45
2022-09-07T12:55:28.530Z,49.84
2022-09-07T12:58:09.989Z,49.82
2022-09-07T13:00:38.469Z,49.42
2022-09-07T13:09:26.960Z,52.21
2022-09-07T13:11:57.038Z,52.47
2022-09-07T13:14:30.071Z,50.63
2022-09-07T13:17:32.996Z,48.98
2022-09-07T13:20:01.776Z,47.73
2022-09-07T13:22:30.630Z,46.35
2022-09-07T13:25:01.814Z,46.30
2022-09-07T13:27:46.968Z,45.19
2022-09-07T13:30:15.638Z,44.71
2022-09-07T13:35:36.890Z,45.70
2022-09-07T13:38:05.957Z,45.66
2022-09-07T13:40:38.433Z,44.82
2022-09-07T13:43:18.377Z,46.58
2022-09-07T13:45:55.846Z,47.33
2022-09-07T13:48:42.301Z,47.59
2022-09-07T13:51:13.719Z,48.08
2022-09-07T13:53:45.175Z,48.42
2022-09-07T13:56:21.851Z,48.82
2022-09-07T13:58:53.192Z,49.80
2022-09-07T14:01:26.722Z,49.53
2022-09-07T14:04:09.716Z,49.92
2022-09-07T14:06:39.321Z,51.02
2022-09-07T14:09:14.050Z,51.51
2022-09-07T14:11:52.711Z,51.94
2022-09-07T14:14:30.667Z,52.92
2022-09-07T14:17:05.175Z,54.10
2022-09-07T14:19:40.129Z,54.40
2022-09-07T14:22:32.054Z,53.99
2022-09-07T14:25:03.435Z,55.07
2022-09-07T14:27:33.625Z,55.50
2022-09-07T14:30:34.801Z,55.74
2022-09-07T14:33:11.042Z,56.62
2022-09-07T14:35:41.556Z,57.98
2022-09-07T14:41:20.611Z,56.89
2022-09-07T14:43:56.696Z,57.05
2022-09-07T14:46:26.996Z,56.56
2022-09-07T14:49:03.254Z,57.36
2022-09-07T14:51:36.668Z,57.87
2022-09-07T14:54:17.512Z,57.74
2022-09-07T14:57:03.622Z,57.28
2022-09-07T14:59:45.014Z,57.76
2022-09-07T15:02:24.317Z,57.39
2022-09-07T15:05:17.908Z,57.28
2022-09-07T15:07:56.954Z,58.06
2022-09-07T15:10:29.574Z,58.13
2022-09-07T15:13:32.572Z,58.27
2022-09-07T15:16:04.571Z,58.36
2022-09-07T15:18:56.593Z,58.50
2022-09-07T15:21:27.841Z,58.60
2022-09-07T15:23:58.962Z,58.78
2022-09-07T15:29:29.172Z,59.36
2022-09-07T15:32:03.887Z,59.37
2022-09-07T15:34:34.720Z,59.67
2022-09-07T15:38:01.060Z,59.70
2022-09-07T15:39:53.627Z,59.74
2022-09-07T15:45:12.210Z,59.45
2022-09-07T15:47:46.166Z,59.55
2022-09-07T15:50:17.535Z,59.87
2022-09-07T15:52:46.803Z,59.79
2022-09-07T15:55:17.552Z,60.84
2022-09-07T15:57:54.559Z,60.91
2022-09-07T16:00:28.729Z,63.85
2022-09-07T16:03:06.446Z,62.27
2022-09-07T16:05:36.123Z,62.39
2022-09-07T16:10:55.790Z,64.45
2022-09-07T16:13:25.737Z,65.63
2022-09-07T16:15:54.627Z,68.22
2022-09-07T16:18:23.769Z,68.52
2022-09-07T16:20:52.940Z,68.37
2022-09-07T16:23:22.013Z,69.14
2022-09-07T16:26:01.433Z,69.03
2022-09-07T16:28:30.608Z,70.29
2022-09-07T16:31:04.253Z,70.60
2022-09-07T16:33:37.021Z,71.61
2022-09-07T16:36:17.087Z,72.07
2022-09-07T16:38:48.813Z,71.53
2022-09-07T16:41:20.726Z,73.28
2022-09-07T16:43:50.614Z,73.87
2022-09-07T16:46:20.424Z,74.27
2022-09-07T16:48:49.421Z,75.10
2022-09-07T16:51:21.456Z,76.33
2022-09-07T16:53:52.013Z,75.40
2022-09-07T16:56:23.898Z,75.17
2022-09-07T16:58:56.645Z,74.39
2022-09-07T17:01:30.276Z,75.05
2022-09-07T17:03:59.888Z,78.10
2022-09-07T17:06:31.306Z,78.06
2022-09-07T17:09:00.634Z,77.31
2022-09-07T17:11:37.058Z,79.02
2022-09-07T17:14:06.801Z,80.90
2022-09-07T17:16:38.614Z,81.94
2022-09-07T17:22:01.089Z,77.46
2022-09-07T17:24:32.206Z,78.65
2022-09-07T17:27:01.976Z,82.68
2022-09-07T17:29:33.915Z,83.88
2022-09-07T17:34:56.085Z,85.95
2022-09-07T17:37:25.669Z,86.87
2022-09-07T17:39:54.947Z,86.15
2022-09-07T17:42:26.305Z,86.52
2022-09-07T17:45:14.576Z,86.89
2022-09-07T17:47:43.157Z,85.43
2022-09-07T17:50:12.456Z,85.52
2022-09-07T17:52:45.696Z,84.19
2022-09-07T17:55:15.087Z,84.30
2022-09-07T17:57:43.946Z,87.69
2022-09-07T18:00:13.603Z,87.46
2022-09-07T18:02:42.545Z,87.12
2022-09-07T18:05:11.405Z,87.55
2022-09-07T18:07:40.219Z,87.66
2022-09-07T18:10:10.254Z,87.66
2022-09-07T18:12:38.920Z,87.83
2022-09-07T18:15:08.066Z,87.89
2022-09-07T18:17:36.701Z,89.12
2022-09-07T18:20:06.614Z,89.72
2022-09-07T18:22:35.507Z,89.52
2022-09-07T18:25:07.253Z,89.45
2022-09-07T18:27:40.438Z,89.78
2022-09-07T18:30:11.184Z,90.96
2022-09-07T18:32:39.975Z,91.10
2022-09-07T18:35:09.524Z,89.09
2022-09-07T18:37:39.543Z,85.87
2022-09-07T18:40:09.270Z,86.06
2022-09-07T18:42:38.807Z,85.13
2022-09-07T18:47:59.532Z,91.80
2022-09-07T18:50:28.323Z,91.43
2022-09-07T18:53:04.202Z,88.70
2022-09-07T18:55:43.106Z,86.46
2022-09-07T18:58:11.792Z,90.82
2022-09-07T19:00:45.675Z,91.61
2022-09-07T19:03:14.792Z,92.57
2022-09-07T19:05:52.547Z,91.32
2022-09-07T19:08:21.987Z,88.92
2022-09-07T19:10:50.573Z,87.72
2022-09-07T19:13:19.359Z,91.57
2022-09-07T19:15:47.943Z,93.27
2022-09-07T19:18:16.532Z,93.24
2022-09-07T19:20:45.215Z,89.98
2022-09-07T19:23:14.204Z,91.36
2022-09-07T19:25:42.791Z,93.09
2022-09-07T19:28:11.788Z,93.79
2022-09-07T19:30:40.566Z,92.56
2022-09-07T19:33:12.437Z,92.35
2022-09-07T19:35:41.319Z,89.01
2022-09-07T19:38:10.620Z,90.91
2022-09-07T19:40:40.226Z,93.63
2022-09-07T19:43:09.119Z,90.44
2022-09-07T19:45:40.597Z,90.05
2022-09-07T19:48:09.250Z,92.00
2022-09-07T19:50:38.355Z,95.51
2022-09-07T19:53:07.137Z,97.02
2022-09-07T19:55:35.828Z,96.79
2022-09-07T19:58:05.129Z,97.50
2022-09-07T20:00:34.636Z,97.59
2022-09-07T20:03:03.417Z,97.24
2022-09-07T20:05:32.717Z,96.10
2022-09-07T20:08:02.736Z,95.63
2022-09-07T20:10:33.167Z,95.88
2022-09-07T20:13:02.697Z,97.22
2022-09-07T20:15:31.577Z,97.55
2022-09-07T20:18:01.066Z,98.81
2022-09-07T20:20:29.760Z,97.61
2022-09-07T20:22:58.638Z,97.47
2022-09-07T20:25:27.728Z,94.76
2022-09-07T20:27:56.928Z,92.30
2022-09-07T20:30:28.512Z,93.06
2022-09-07T20:32:59.216Z,94.51
2022-09-07T20:35:27.795Z,94.22
2022-09-07T20:37:56.593Z,95.80
2022-09-07T20:40:25.488Z,98.74
2022-09-07T20:42:58.306Z,99.88
2022-09-07T20:45:31.822Z,98.57
2022-09-07T20:48:00.935Z,95.59
2022-09-07T20:50:29.849Z,93.08
2022-09-07T20:52:58.734Z,93.65
2022-09-07T20:55:27.522Z,94.90
2022-09-07T20:57:56.930Z,95.60
2022-09-07T21:00:26.436Z,96.17
2022-09-07T21:02:55.016Z,96.53
2022-09-07T21:05:24.213Z,96.04
2022-09-07T21:07:53.419Z,96.14
2022-09-07T21:10:22.402Z,98.10
2022-09-07T21:12:53.549Z,98.59
2022-09-07T21:15:22.235Z,98.37
2022-09-07T21:17:51.434Z,96.63
2022-09-07T21:20:20.430Z,95.96
2022-09-07T21:22:49.208Z,97.20
2022-09-07T21:25:18.101Z,96.20
2022-09-07T21:27:47.192Z,97.76
2022-09-07T21:30:17.413Z,99.42
2022-09-07T21:32:49.830Z,99.66
2022-09-07T21:35:19.915Z,99.59
2022-09-07T21:37:49.411Z,99.96
2022-09-07T21:40:18.622Z,100.00
2022-09-07T21:42:47.504Z,100.00
2022-09-07T21:45:17.315Z,100.00
2022-09-07T21:47:46.203Z,100.00
2022-09-07T21:50:15.510Z,100.00
2022-09-07T21:52:44.401Z,100.00
2022-09-07T21:55:13.898Z,100.00
2022-09-07T21:57:42.793Z,99.98
2022-09-07T22:00:13.151Z,99.76
2022-09-07T22:02:43.442Z,99.92
2022-09-07T22:05:13.046Z,98.80
2022-09-07T22:07:42.139Z,97.95
2022-09-07T22:10:11.048Z,98.19
2022-09-07T22:12:40.325Z,98.80
2022-09-07T22:15:09.941Z,99.59
2022-09-07T22:17:42.236Z,100.00
2022-09-07T22:20:14.191Z,100.00
2022-09-07T22:22:43.578Z,100.00
2022-09-07T22:25:14.170Z,100.00
2022-09-07T22:27:43.309Z,98.34
2022-09-07T22:30:12.957Z,96.26
2022-09-07T22:32:49.280Z,95.70
2022-09-07T22:35:19.849Z,95.64
2022-09-07T22:37:48.593Z,95.91
2022-09-07T22:40:18.983Z,96.03
2022-09-07T22:42:48.225Z,96.31
2022-09-07T22:45:17.831Z,98.07
2022-09-07T22:47:48.019Z,98.40
2022-09-07T22:50:17.238Z,97.58
2022-09-07T22:52:47.845Z,98.83
2022-09-07T22:55:17.297Z,99.33
2022-09-07T22:57:47.429Z,99.92
2022-09-07T23:00:17.238Z,99.93
2022-09-07T23:02:47.532Z,99.54
2022-09-07T23:05:17.622Z,99.52
2022-09-07T23:07:49.210Z,99.44
2022-09-07T23:10:18.208Z,99.42
2022-09-07T23:12:48.025Z,99.97
2022-09-07T23:15:17.941Z,100.00
2022-09-07T23:17:46.911Z,100.00
2022-09-07T23:20:17.484Z,100.00
2022-09-07T23:22:47.602Z,100.00
2022-09-07T23:25:17.292Z,100.00
2022-09-07T23:27:47.860Z,100.00
2022-09-07T23:30:17.984Z,100.00
2022-09-07T23:32:47.399Z,100.00
2022-09-07T23:35:18.691Z,100.00
2022-09-07T23:37:47.775Z,100.00
2022-09-07T23:40:21.814Z,100.00
2022-09-07T23:42:51.674Z,100.00
2022-09-07T23:45:22.049Z,100.00
2022-09-07T23:47:51.838Z,100.00
2022-09-07T23:50:21.664Z,100.00
2022-09-07T23:52:52.442Z,100.00
2022-09-07T23:55:22.849Z,100.00
2022-09-07T23:57:52.829Z,100.00
